This is the latest recevied weather packets stored in our database for station/object OE-4057. If no packets are shown the sender has not sent any weather packets the latest 10 day(s).
| Time | Temp. | Humidity | Pressure | Rain* | Wind** | Luminosity | Snow |
|---|---|---|---|---|---|---|---|
| 1787922669 | 34.44° C | 37% | 1006.9 hPa | - | - | - | - |
| 1787920870 | 31.67° C | 43% | 1007.5 hPa | - | - | - | - |
| 1787919070 | 30.56° C | 45% | 1007.7 hPa | - | - | - | - |
| 1787917270 | 30° C | 45% | 1009 hPa | - | - | - | - |
| 1787915470 | 29.44° C | 47% | 1009.2 hPa | - | - | - | - |
| 1787913671 | 27.22° C | 51% | 1009.6 hPa | - | - | - | - |
| 1787911871 | 26.11° C | 55% | 1009.9 hPa | - | - | - | - |
| 1787910071 | 24.44° C | 58% | 1011.3 hPa | - | - | - | - |
| 1787908270 | 22.78° C | 63% | 1012.8 hPa | - | - | - | - |
| 1787906470 | 21.11° C | 70% | 1013.2 hPa | - | - | - | - |
| 1787904671 | 19.44° C | 75% | 1014.7 hPa | - | - | - | - |
| 1787902870 | 18.33° C | 78% | 1014.9 hPa | - | - | - | - |
| 1787901070 | 18.33° C | 80% | 1015 hPa | - | - | - | - |
| 1787899270 | 17.78° C | 82% | 1015.2 hPa | - | - | - | - |
| 1787897470 | 16.67° C | 86% | 1015.4 hPa | - | - | - | - |
| 1787895670 | 16.67° C | 87% | 1015.5 hPa | - | - | - | - |
| 1787893871 | 16.11° C | 88% | 1015.6 hPa | - | - | - | - |
| 1787892070 | 16.11° C | 88% | 1015.5 hPa | - | - | - | - |
| 1787890270 | 16.11° C | 87% | 1015.5 hPa | - | - | - | - |
| 1787886670 | 16.67° C | 85% | 1015.4 hPa | - | - | - | - |
| 1787884871 | 16.67° C | 86% | 1015.4 hPa | - | - | - | - |
| 1787883071 | 17.22° C | 85% | 1015.3 hPa | - | - | - | - |
| 1787881271 | 17.78° C | 84% | 1015.2 hPa | - | - | - | - |
| 1787879470 | 17.78° C | 83% | 1015.2 hPa | - | - | - | - |
| 1787877670 | 18.33° C | 82% | 1015.1 hPa | - | - | - | - |
* Rain since midnight (hover to see other rain measurements)
** Current wind speed in m/s (hover to see current wind gust speed)